Back to Top

Language: 

My Weather Underground Personal Weather Station Historical Data with Graphs...

Delerius Weather Station Historical Data
Daily Summary for October 13, 2017 Units:  English    Metric   Both
« Previous Day
Next Day »
Daily Weekly Monthly Yearly Custom
  High: Low: Average:
Temperature: 69.8 °F 57.0 °F 63.7 °F
Dew Point: 62.5 °F 51.9 °F 58.6 °F
Humidity: 88 % 75 % 84 %
Wind Speed: 19.0 mph 2.0 mph 10.9 mph
Wind Gust: 35.0 mph - -
Wind:- - SW
Pressure: 30.02 in 29.91 in -
Precipitation: 0.00 in    
Historical Graphs
 
 
Tabular Data for October 13, 2017
Time Temperature Dew Point Pressure Wind Wind Speed Wind Gust Humidity Rainfall Rate (Hourly) solar Conditions
00:04 57.0 °F 51.9 °F 29.99 in SW 5.0 mph 8.0 mph 83 % 0.00 in 0 W/m2
00:09 57.0 °F 52.2 °F 29.99 in SW 6.0 mph 12.0 mph 84 % 0.00 in 0 W/m2
00:14 57.4 °F 52.6 °F 29.99 in SW 7.0 mph 12.0 mph 84 % 0.00 in 0 W/m2
00:19 57.4 °F 52.6 °F 29.99 in SW 6.0 mph 11.0 mph 84 % 0.00 in 0 W/m2
00:24 57.6 °F 53.1 °F 29.99 in SSW 6.0 mph 12.0 mph 85 % 0.00 in 0 W/m2
00:29 57.7 °F 53.3 °F 29.99 in SSW 6.0 mph 12.0 mph 85 % 0.00 in 0 W/m2
00:34 57.7 °F 53.3 °F 29.99 in SSW 6.0 mph 10.0 mph 85 % 0.00 in 0 W/m2
00:39 57.7 °F 52.9 °F 29.99 in SSW 6.0 mph 10.0 mph 84 % 0.00 in 0 W/m2
00:44 57.7 °F 52.9 °F 29.98 in SSW 7.0 mph 11.0 mph 84 % 0.00 in 0 W/m2
00:45 57.7 °F 52.9 °F 29.98 in SSW 6.0 mph 11.0 mph 84 % 0.00 in 0 W/m2
00:50 57.9 °F 53.4 °F 29.98 in SSW 6.0 mph 15.0 mph 85 % 0.00 in 0 W/m2
00:55 58.1 °F 53.6 °F 29.99 in SSW 7.0 mph 15.0 mph 85 % 0.00 in 0 W/m2
01:00 58.3 °F 53.8 °F 29.99 in SSW 6.0 mph 13.0 mph 85 % 0.00 in 0 W/m2
01:05 58.5 °F 54.3 °F 29.99 in SSW 6.0 mph 13.0 mph 86 % 0.00 in 0 W/m2
01:10 58.5 °F 54.0 °F 29.99 in South 6.0 mph 12.0 mph 85 % 0.00 in 0 W/m2
01:15 58.6 °F 54.5 °F 29.99 in South 5.0 mph 10.0 mph 86 % 0.00 in 0 W/m2
01:20 58.6 °F 54.5 °F 29.99 in SSW 6.0 mph 11.0 mph 86 % 0.00 in 0 W/m2
01:25 58.6 °F 54.5 °F 29.99 in South 7.0 mph 14.0 mph 86 % 0.00 in 0 W/m2
01:30 58.8 °F 54.6 °F 29.99 in South 6.0 mph 14.0 mph 86 % 0.00 in 0 W/m2
01:35 58.8 °F 54.6 °F 29.99 in SSW 6.0 mph 11.0 mph 86 % 0.00 in 0 W/m2
01:40 58.8 °F 54.6 °F 29.99 in South 5.0 mph 11.0 mph 86 % 0.00 in 0 W/m2
01:45 58.6 °F 54.5 °F 29.99 in SSE 4.0 mph 8.0 mph 86 % 0.00 in 0 W/m2
01:50 58.6 °F 54.5 °F 29.99 in SSE 4.0 mph 12.0 mph 86 % 0.00 in 0 W/m2
01:55 58.6 °F 54.5 °F 29.98 in South 6.0 mph 13.0 mph 86 % 0.00 in 0 W/m2
02:00 58.6 °F 54.5 °F 29.99 in South 4.0 mph 13.0 mph 86 % 0.00 in 0 W/m2
02:05 58.8 °F 54.6 °F 29.98 in SSW 5.0 mph 10.0 mph 86 % 0.00 in 0 W/m2
02:10 58.8 °F 54.6 °F 29.99 in SSW 6.0 mph 14.0 mph 86 % 0.00 in 0 W/m2
02:15 58.8 °F 54.6 °F 29.99 in SSW 6.0 mph 14.0 mph 86 % 0.00 in 0 W/m2
02:20 58.8 °F 54.6 °F 29.99 in SSW 6.0 mph 12.0 mph 86 % 0.00 in 0 W/m2
02:25 58.8 °F 54.6 °F 29.98 in SSW 6.0 mph 12.0 mph 86 % 0.00 in 0 W/m2
02:30 58.8 °F 54.6 °F 29.98 in SSW 6.0 mph 13.0 mph 86 % 0.00 in 0 W/m2
02:35 58.8 °F 54.6 °F 29.98 in SSW 7.0 mph 13.0 mph 86 % 0.00 in 0 W/m2
02:40 58.8 °F 54.6 °F 29.98 in SSW 7.0 mph 13.0 mph 86 % 0.00 in 0 W/m2
02:45 58.8 °F 54.6 °F 29.98 in South 7.0 mph 13.0 mph 86 % 0.00 in 0 W/m2
02:50 58.8 °F 54.6 °F 29.98 in South 6.0 mph 11.0 mph 86 % 0.00 in 0 W/m2
02:55 58.8 °F 54.6 °F 29.98 in South 6.0 mph 13.0 mph 86 % 0.00 in 0 W/m2
03:00 58.8 °F 54.3 °F 29.98 in South 6.0 mph 14.0 mph 85 % 0.00 in 0 W/m2
03:05 58.8 °F 54.3 °F 29.98 in South 6.0 mph 14.0 mph 85 % 0.00 in 0 W/m2
03:10 58.6 °F 54.1 °F 29.97 in SSE 7.0 mph 12.0 mph 85 % 0.00 in 0 W/m2
03:15 58.5 °F 54.0 °F 29.97 in SSE 8.0 mph 13.0 mph 85 % 0.00 in 0 W/m2
03:20 58.5 °F 54.3 °F 29.98 in SSE 8.0 mph 13.0 mph 86 % 0.00 in 0 W/m2
03:25 58.5 °F 54.3 °F 29.98 in SSW 9.0 mph 15.0 mph 86 % 0.00 in 0 W/m2
03:30 58.5 °F 54.3 °F 29.97 in SSW 9.0 mph 15.0 mph 86 % 0.00 in 0 W/m2
03:35 58.5 °F 54.3 °F 29.97 in SSW 6.0 mph 13.0 mph 86 % 0.00 in 0 W/m2
03:40 58.5 °F 54.3 °F 29.97 in SSW 7.0 mph 16.0 mph 86 % 0.00 in 0 W/m2
03:45 58.5 °F 54.3 °F 29.97 in SSW 8.0 mph 16.0 mph 86 % 0.00 in 0 W/m2
03:50 58.3 °F 54.4 °F 29.96 in SW 7.0 mph 15.0 mph 87 % 0.00 in 0 W/m2
03:55 58.5 °F 54.6 °F 29.96 in SSW 7.0 mph 15.0 mph 87 % 0.00 in 0 W/m2
04:01 58.5 °F 54.6 °F 29.96 in SSW 7.0 mph 14.0 mph 87 % 0.00 in 0 W/m2
04:06 58.6 °F 54.8 °F 29.96 in SW 8.0 mph 16.0 mph 87 % 0.00 in 0 W/m2
04:11 58.8 °F 55.0 °F 29.96 in SW 7.0 mph 16.0 mph 87 % 0.00 in 0 W/m2
04:16 58.8 °F 55.0 °F 29.96 in SW 6.0 mph 12.0 mph 87 % 0.00 in 0 W/m2
04:21 58.8 °F 55.0 °F 29.96 in SSW 4.0 mph 12.0 mph 87 % 0.00 in 0 W/m2
04:26 58.8 °F 55.0 °F 29.95 in SSE 2.0 mph 11.0 mph 87 % 0.00 in 0 W/m2
04:31 58.8 °F 55.0 °F 29.95 in SSE 3.0 mph 9.0 mph 87 % 0.00 in 0 W/m2
04:36 58.8 °F 55.0 °F 29.95 in South 4.0 mph 9.0 mph 87 % 0.00 in 0 W/m2
04:41 58.8 °F 55.0 °F 29.95 in South 4.0 mph 13.0 mph 87 % 0.00 in 0 W/m2
04:46 59.0 °F 55.1 °F 29.95 in SSE 4.0 mph 13.0 mph 87 % 0.00 in 0 W/m2
04:51 59.2 °F 55.3 °F 29.95 in South 5.0 mph 15.0 mph 87 % 0.00 in 0 W/m2
04:56 59.2 °F 55.3 °F 29.95 in SW 6.0 mph 15.0 mph 87 % 0.00 in 0 W/m2
05:01 59.2 °F 55.3 °F 29.95 in SW 5.0 mph 12.0 mph 87 % 0.00 in 0 W/m2
05:02 59.2 °F 55.3 °F 29.95 in SW 6.0 mph 12.0 mph 87 % 0.00 in 0 W/m2
05:07 59.2 °F 55.3 °F 29.95 in SW 6.0 mph 13.0 mph 87 % 0.00 in 0 W/m2
05:12 59.2 °F 55.3 °F 29.95 in SW 7.0 mph 15.0 mph 87 % 0.00 in 0 W/m2
05:17 59.2 °F 55.3 °F 29.95 in SW 6.0 mph 15.0 mph 87 % 0.00 in 0 W/m2
05:22 59.2 °F 55.3 °F 29.94 in SW 7.0 mph 18.0 mph 87 % 0.00 in 0 W/m2
05:28 59.4 °F 55.8 °F 29.94 in SW 10.0 mph 20.0 mph 88 % 0.00 in 0 W/m2
05:33 59.5 °F 56.0 °F 29.94 in SW 11.0 mph 21.0 mph 88 % 0.00 in 0 W/m2
05:38 59.7 °F 55.8 °F 29.93 in SW 11.0 mph 21.0 mph 87 % 0.00 in 0 W/m2
05:43 59.9 °F 56.0 °F 29.93 in SW 11.0 mph 21.0 mph 87 % 0.00 in 0 W/m2
05:48 59.9 °F 56.0 °F 29.93 in SW 10.0 mph 21.0 mph 87 % 0.00 in 0 W/m2
05:53 60.1 °F 56.2 °F 29.93 in SW 12.0 mph 24.0 mph 87 % 0.00 in 0 W/m2
05:58 60.1 °F 56.2 °F 29.92 in SW 14.0 mph 26.0 mph 87 % 0.00 in 0 W/m2
06:03 60.4 °F 56.6 °F 29.92 in SW 16.0 mph 31.0 mph 87 % 0.00 in 0 W/m2
06:08 60.6 °F 56.7 °F 29.92 in SW 18.0 mph 31.0 mph 87 % 0.00 in 0 W/m2
06:13 60.6 °F 56.4 °F 29.92 in SW 18.0 mph 34.0 mph 86 % 0.00 in 0 W/m2
06:18 60.8 °F 56.6 °F 29.92 in SW 18.0 mph 35.0 mph 86 % 0.00 in 0 W/m2
06:23 60.8 °F 56.6 °F 29.92 in SW 18.0 mph 35.0 mph 86 % 0.00 in 0 W/m2
06:28 60.8 °F 56.6 °F 29.92 in SW 17.0 mph 28.0 mph 86 % 0.00 in 0 W/m2
06:33 60.8 °F 56.6 °F 29.92 in SW 18.0 mph 32.0 mph 86 % 0.00 in 0 W/m2
06:38 60.8 °F 56.6 °F 29.91 in SW 18.0 mph 32.0 mph 86 % 0.00 in 0 W/m2
06:43 60.6 °F 56.4 °F 29.91 in SW 17.0 mph 29.0 mph 86 % 0.00 in 0 W/m2
06:48 60.6 °F 56.7 °F 29.91 in SW 17.0 mph 29.0 mph 87 % 0.00 in 0 W/m2
06:53 60.6 °F 56.7 °F 29.91 in SW 17.0 mph 27.0 mph 87 % 0.00 in 0 W/m2
06:58 60.6 °F 56.7 °F 29.92 in SW 16.0 mph 28.0 mph 87 % 0.00 in 0 W/m2
07:03 60.8 °F 56.9 °F 29.92 in SW 17.0 mph 28.0 mph 87 % 0.00 in 0 W/m2
07:06 60.8 °F 56.9 °F 29.92 in SW 16.0 mph 30.0 mph 87 % 0.00 in 0 W/m2
07:12 61.0 °F 57.1 °F 29.92 in SW 16.0 mph 31.0 mph 87 % 0.00 in 0 W/m2
07:16 60.8 °F 56.9 °F 29.93 in SW 15.0 mph 31.0 mph 87 % 0.00 in 0 W/m2
07:27 61.0 °F 57.1 °F 29.93 in SW 14.0 mph 24.0 mph 87 % 0.00 in 0 W/m2
07:32 61.0 °F 57.1 °F 29.93 in SW 13.0 mph 22.0 mph 87 % 0.00 in 0 W/m2
07:37 61.2 °F 57.3 °F 29.93 in SSW 12.0 mph 20.0 mph 87 % 0.00 in 5 W/m2
07:38 61.2 °F 57.3 °F 29.93 in SSW 11.0 mph 20.0 mph 87 % 0.00 in 5 W/m2
07:43 61.2 °F 57.3 °F 29.93 in SW 10.0 mph 20.0 mph 87 % 0.00 in 7 W/m2
07:48 61.2 °F 57.3 °F 29.94 in SW 10.0 mph 24.0 mph 87 % 0.00 in 9 W/m2
07:53 61.2 °F 57.3 °F 29.94 in SW 10.0 mph 24.0 mph 87 % 0.00 in 11 W/m2
07:58 61.2 °F 57.3 °F 29.94 in SW 10.0 mph 22.0 mph 87 % 0.00 in 16 W/m2
08:03 61.3 °F 57.4 °F 29.94 in SW 10.0 mph 22.0 mph 87 % 0.00 in 16 W/m2
08:08 61.3 °F 57.4 °F 29.94 in SW 9.0 mph 22.0 mph 87 % 0.00 in 14 W/m2
08:13 61.3 °F 57.4 °F 29.94 in SSW 9.0 mph 18.0 mph 87 % 0.00 in 21 W/m2
08:18 61.5 °F 57.6 °F 29.94 in SSW 10.0 mph 21.0 mph 87 % 0.00 in 26 W/m2
08:23 61.7 °F 57.5 °F 29.94 in SSW 11.0 mph 21.0 mph 86 % 0.00 in 23 W/m2
08:28 61.9 °F 57.6 °F 29.94 in SW 12.0 mph 21.0 mph 86 % 0.00 in 23 W/m2
08:33 62.1 °F 57.8 °F 29.94 in SSW 14.0 mph 27.0 mph 86 % 0.00 in 26 W/m2
08:38 62.2 °F 58.0 °F 29.94 in SSW 13.0 mph 27.0 mph 86 % 0.00 in 35 W/m2
08:43 62.2 °F 58.0 °F 29.94 in SSW 12.0 mph 25.0 mph 86 % 0.00 in 33 W/m2
08:48 62.2 °F 58.0 °F 29.94 in SSW 12.0 mph 24.0 mph 86 % 0.00 in 53 W/m2
08:53 62.2 °F 58.0 °F 29.93 in SSW 11.0 mph 25.0 mph 86 % 0.00 in 83 W/m2
08:58 62.4 °F 58.2 °F 29.93 in SSW 12.0 mph 25.0 mph 86 % 0.00 in 162 W/m2
09:01 62.6 °F 58.4 °F 29.93 in SSW 11.0 mph 23.0 mph 86 % 0.00 in 192 W/m2
09:06 63.0 °F 58.4 °F 29.94 in SW 11.0 mph 23.0 mph 85 % 0.00 in 251 W/m2
09:11 63.5 °F 58.6 °F 29.94 in SW 12.0 mph 22.0 mph 84 % 0.00 in 234 W/m2
09:16 63.9 °F 58.9 °F 29.94 in SW 15.0 mph 27.0 mph 84 % 0.00 in 299 W/m2
09:21 64.2 °F 58.9 °F 29.94 in SW 17.0 mph 27.0 mph 83 % 0.00 in 206 W/m2
09:26 64.6 °F 59.0 °F 29.94 in SW 19.0 mph 31.0 mph 82 % 0.00 in 338 W/m2
09:31 64.8 °F 59.1 °F 29.95 in SW 17.0 mph 31.0 mph 82 % 0.00 in 214 W/m2
09:36 65.1 °F 59.1 °F 29.95 in SW 17.0 mph 27.0 mph 81 % 0.00 in 401 W/m2
09:41 65.3 °F 59.3 °F 29.95 in SW 17.0 mph 28.0 mph 81 % 0.00 in 137 W/m2
09:46 65.1 °F 59.1 °F 29.95 in SW 16.0 mph 28.0 mph 81 % 0.00 in 171 W/m2
09:51 65.1 °F 59.1 °F 29.95 in SW 17.0 mph 28.0 mph 81 % 0.00 in 165 W/m2
09:56 65.3 °F 59.3 °F 29.95 in SW 17.0 mph 28.0 mph 81 % 0.00 in 308 W/m2
10:01 65.5 °F 59.1 °F 29.95 in SW 16.0 mph 31.0 mph 80 % 0.00 in 139 W/m2
10:06 65.5 °F 59.1 °F 29.95 in SW 17.0 mph 31.0 mph 80 % 0.00 in 128 W/m2
10:12 65.3 °F 59.0 °F 29.95 in SW 16.0 mph 27.0 mph 80 % 0.00 in 134 W/m2
10:17 65.3 °F 59.0 °F 29.95 in SW 15.0 mph 25.0 mph 80 % 0.00 in 127 W/m2
10:22 65.3 °F 59.0 °F 29.94 in SW 15.0 mph 27.0 mph 80 % 0.00 in 176 W/m2
10:27 65.5 °F 59.1 °F 29.94 in SW 18.0 mph 32.0 mph 80 % 0.00 in 134 W/m2
10:32 65.5 °F 59.1 °F 29.95 in SW 18.0 mph 32.0 mph 80 % 0.00 in 132 W/m2
10:37 65.5 °F 59.1 °F 29.95 in SW 17.0 mph 30.0 mph 80 % 0.00 in 135 W/m2
10:42 65.7 °F 59.0 °F 29.95 in SW 19.0 mph 30.0 mph 79 % 0.00 in 162 W/m2
10:47 65.8 °F 59.1 °F 29.96 in WSW 19.0 mph 32.0 mph 79 % 0.00 in 167 W/m2
10:52 65.8 °F 59.1 °F 29.96 in WSW 16.0 mph 32.0 mph 79 % 0.00 in 200 W/m2
10:57 66.0 °F 59.3 °F 29.96 in WSW 16.0 mph 31.0 mph 79 % 0.00 in 218 W/m2
11:02 66.4 °F 59.3 °F 29.96 in WSW 18.0 mph 32.0 mph 78 % 0.00 in 193 W/m2
11:07 66.4 °F 59.3 °F 29.96 in WSW 19.0 mph 32.0 mph 78 % 0.00 in 172 W/m2
11:12 66.4 °F 59.3 °F 29.96 in WSW 18.0 mph 30.0 mph 78 % 0.00 in 148 W/m2
11:17 66.4 °F 59.7 °F 29.96 in WSW 17.0 mph 28.0 mph 79 % 0.00 in 174 W/m2
11:25 66.6 °F 59.8 °F 29.97 in SW 16.0 mph 31.0 mph 79 % 0.00 in 165 W/m2
11:30 66.6 °F 59.8 °F 29.96 in SW 16.0 mph 30.0 mph 79 % 0.00 in 165 W/m2
11:35 66.6 °F 59.8 °F 29.96 in SW 17.0 mph 28.0 mph 79 % 0.00 in 313 W/m2
11:40 66.7 °F 60.0 °F 29.96 in SW 15.0 mph 27.0 mph 79 % 0.00 in 285 W/m2
11:45 67.1 °F 60.0 °F 29.96 in SW 15.0 mph 28.0 mph 78 % 0.00 in 348 W/m2
11:50 67.5 °F 60.4 °F 29.96 in SW 16.0 mph 28.0 mph 78 % 0.00 in 220 W/m2
11:55 67.5 °F 60.4 °F 29.96 in SW 13.0 mph 24.0 mph 78 % 0.00 in 185 W/m2
12:00 67.5 °F 60.4 °F 29.97 in SW 13.0 mph 24.0 mph 78 % 0.00 in 176 W/m2
12:05 67.5 °F 60.4 °F 29.97 in SW 13.0 mph 24.0 mph 78 % 0.00 in 163 W/m2
12:10 67.3 °F 60.2 °F 29.97 in SW 13.0 mph 23.0 mph 78 % 0.00 in 125 W/m2
12:15 67.1 °F 60.4 °F 29.97 in SW 14.0 mph 23.0 mph 79 % 0.00 in 192 W/m2
12:20 67.1 °F 60.4 °F 29.97 in SW 15.0 mph 24.0 mph 79 % 0.00 in 174 W/m2
12:25 67.1 °F 60.4 °F 29.97 in SW 16.0 mph 24.0 mph 79 % 0.00 in 139 W/m2
12:30 66.9 °F 60.2 °F 29.96 in SW 16.0 mph 26.0 mph 79 % 0.00 in 118 W/m2
12:35 66.9 °F 60.5 °F 29.96 in SW 16.0 mph 28.0 mph 80 % 0.00 in 102 W/m2
12:40 66.7 °F 60.4 °F 29.96 in SW 17.0 mph 30.0 mph 80 % 0.00 in 98 W/m2
12:45 66.7 °F 60.4 °F 29.96 in SW 19.0 mph 34.0 mph 80 % 0.00 in 93 W/m2
12:50 66.6 °F 60.5 °F 29.96 in SW 18.0 mph 34.0 mph 81 % 0.00 in 93 W/m2
12:55 66.4 °F 60.4 °F 29.97 in SW 17.0 mph 29.0 mph 81 % 0.00 in 98 W/m2
13:00 66.0 °F 60.4 °F 29.97 in SW 15.0 mph 23.0 mph 82 % 0.00 in 123 W/m2
13:05 66.0 °F 60.7 °F 29.97 in SW 13.0 mph 24.0 mph 83 % 0.00 in 142 W/m2
13:10 66.4 °F 60.7 °F 29.97 in WSW 13.0 mph 24.0 mph 82 % 0.00 in 174 W/m2
13:15 66.7 °F 60.7 °F 29.97 in WSW 14.0 mph 25.0 mph 81 % 0.00 in 176 W/m2
13:20 67.1 °F 61.1 °F 29.97 in SW 13.0 mph 25.0 mph 81 % 0.00 in 251 W/m2
13:25 67.5 °F 61.4 °F 29.96 in WSW 14.0 mph 28.0 mph 81 % 0.00 in 360 W/m2
13:30 67.8 °F 61.4 °F 29.96 in SW 16.0 mph 28.0 mph 80 % 0.00 in 227 W/m2
13:35 68.0 °F 61.6 °F 29.97 in SW 16.0 mph 26.0 mph 80 % 0.00 in 279 W/m2
13:40 68.2 °F 61.4 °F 29.97 in SW 17.0 mph 28.0 mph 79 % 0.00 in 619 W/m2
13:45 68.9 °F 62.1 °F 29.97 in SW 16.0 mph 28.0 mph 79 % 0.00 in 612 W/m2
13:51 69.1 °F 61.6 °F 29.97 in SW 16.0 mph 27.0 mph 77 % 0.00 in 650 W/m2
13:56 69.3 °F 61.7 °F 29.97 in SW 17.0 mph 30.0 mph 77 % 0.00 in 628 W/m2
14:01 69.3 °F 61.7 °F 29.97 in SW 15.0 mph 30.0 mph 77 % 0.00 in 299 W/m2
14:06 69.1 °F 61.6 °F 29.97 in SW 15.0 mph 26.0 mph 77 % 0.00 in 367 W/m2
14:11 69.1 °F 61.6 °F 29.97 in SW 15.0 mph 26.0 mph 77 % 0.00 in 686 W/m2
14:16 69.4 °F 61.9 °F 29.97 in SW 14.0 mph 26.0 mph 77 % 0.00 in 555 W/m2
14:21 69.6 °F 61.7 °F 29.97 in SW 14.0 mph 26.0 mph 76 % 0.00 in 635 W/m2
14:26 69.8 °F 61.5 °F 29.97 in SW 15.0 mph 26.0 mph 75 % 0.00 in 482 W/m2
14:31 69.6 °F 61.7 °F 29.97 in SW 14.0 mph 26.0 mph 76 % 0.00 in 276 W/m2
14:36 69.4 °F 61.5 °F 29.97 in SW 14.0 mph 25.0 mph 76 % 0.00 in 287 W/m2
14:41 69.4 °F 61.9 °F 29.98 in SW 13.0 mph 24.0 mph 77 % 0.00 in 225 W/m2
14:46 69.1 °F 61.6 °F 29.98 in SW 13.0 mph 24.0 mph 77 % 0.00 in 192 W/m2
14:51 68.9 °F 61.4 °F 29.98 in SW 12.0 mph 20.0 mph 77 % 0.00 in 102 W/m2
14:56 68.7 °F 61.6 °F 29.98 in SW 11.0 mph 22.0 mph 78 % 0.00 in 127 W/m2
15:01 68.5 °F 61.4 °F 29.98 in SW 11.0 mph 22.0 mph 78 % 0.00 in 100 W/m2
15:06 68.4 °F 61.2 °F 29.98 in SW 9.0 mph 18.0 mph 78 % 0.00 in 88 W/m2
15:11 68.2 °F 61.4 °F 29.97 in SW 11.0 mph 18.0 mph 79 % 0.00 in 77 W/m2
15:16 67.8 °F 61.1 °F 29.97 in SSW 12.0 mph 21.0 mph 79 % 0.00 in 58 W/m2
15:21 67.6 °F 61.2 °F 29.97 in SSW 11.0 mph 22.0 mph 80 % 0.00 in 81 W/m2
15:26 67.6 °F 61.2 °F 29.97 in SSW 10.0 mph 22.0 mph 80 % 0.00 in 77 W/m2
15:31 67.6 °F 61.2 °F 29.98 in SSW 9.0 mph 16.0 mph 80 % 0.00 in 67 W/m2
15:36 67.6 °F 61.2 °F 29.98 in SSW 10.0 mph 20.0 mph 80 % 0.00 in 74 W/m2
15:41 67.6 °F 61.2 °F 29.98 in SSW 11.0 mph 21.0 mph 80 % 0.00 in 91 W/m2
15:46 67.8 °F 61.4 °F 29.98 in SSW 11.0 mph 21.0 mph 80 % 0.00 in 72 W/m2
15:51 68.0 °F 61.6 °F 29.97 in SW 10.0 mph 18.0 mph 80 % 0.00 in 109 W/m2
15:56 68.2 °F 61.8 °F 29.97 in SSW 8.0 mph 15.0 mph 80 % 0.00 in 109 W/m2
16:01 68.4 °F 61.9 °F 29.98 in SW 7.0 mph 15.0 mph 80 % 0.00 in 216 W/m2
16:06 68.7 °F 62.3 °F 29.97 in SW 8.0 mph 15.0 mph 80 % 0.00 in 392 W/m2
16:11 69.3 °F 62.1 °F 29.97 in SSW 10.0 mph 19.0 mph 78 % 0.00 in 332 W/m2
16:16 69.4 °F 62.3 °F 29.97 in SW 12.0 mph 32.0 mph 78 % 0.00 in 394 W/m2
16:21 69.6 °F 62.5 °F 29.97 in SW 11.0 mph 32.0 mph 78 % 0.00 in 285 W/m2
16:26 69.4 °F 61.9 °F 29.97 in SW 9.0 mph 20.0 mph 77 % 0.00 in 294 W/m2
16:31 69.3 °F 62.1 °F 29.97 in SSW 9.0 mph 21.0 mph 78 % 0.00 in 174 W/m2
16:36 68.9 °F 61.8 °F 29.97 in SSW 9.0 mph 21.0 mph 78 % 0.00 in 67 W/m2
16:41 68.7 °F 61.9 °F 29.97 in SSW 8.0 mph 16.0 mph 79 % 0.00 in 53 W/m2
16:46 68.4 °F 61.9 °F 29.97 in SSW 8.0 mph 18.0 mph 80 % 0.00 in 47 W/m2
16:51 67.8 °F 61.4 °F 29.97 in SSW 9.0 mph 18.0 mph 80 % 0.00 in 42 W/m2
16:56 67.6 °F 61.6 °F 29.98 in SSW 9.0 mph 19.0 mph 81 % 0.00 in 51 W/m2
17:01 67.6 °F 61.6 °F 29.98 in SSW 8.0 mph 19.0 mph 81 % 0.00 in 62 W/m2
17:06 67.6 °F 61.6 °F 29.98 in SSW 8.0 mph 15.0 mph 81 % 0.00 in 97 W/m2
17:11 67.5 °F 61.8 °F 29.98 in SW 9.0 mph 16.0 mph 82 % 0.00 in 83 W/m2
17:16 67.5 °F 61.4 °F 29.98 in SW 8.0 mph 16.0 mph 81 % 0.00 in 81 W/m2
17:21 67.3 °F 61.6 °F 29.98 in SW 7.0 mph 13.0 mph 82 % 0.00 in 44 W/m2
17:26 67.1 °F 61.1 °F 29.98 in SSW 6.0 mph 14.0 mph 81 % 0.00 in 30 W/m2
17:31 66.9 °F 61.2 °F 29.98 in SSW 8.0 mph 14.0 mph 82 % 0.00 in 26 W/m2
17:36 66.6 °F 60.9 °F 29.98 in SSW 9.0 mph 25.0 mph 82 % 0.00 in 18 W/m2
17:41 66.6 °F 61.2 °F 29.98 in SSW 8.0 mph 25.0 mph 83 % 0.00 in 14 W/m2
17:46 66.4 °F 61.1 °F 29.98 in SW 8.0 mph 16.0 mph 83 % 0.00 in 14 W/m2
17:51 66.2 °F 60.9 °F 29.98 in SW 9.0 mph 18.0 mph 83 % 0.00 in 14 W/m2
17:56 66.0 °F 60.7 °F 29.98 in SW 10.0 mph 22.0 mph 83 % 0.00 in 14 W/m2
18:01 66.0 °F 60.7 °F 29.99 in SW 12.0 mph 22.0 mph 83 % 0.00 in 9 W/m2
18:06 66.0 °F 60.7 °F 29.99 in SW 11.0 mph 21.0 mph 83 % 0.00 in 7 W/m2
18:11 66.0 °F 60.7 °F 29.99 in SW 10.0 mph 21.0 mph 83 % 0.00 in 0 W/m2
18:12 66.0 °F 60.7 °F 29.99 in SW 10.0 mph 21.0 mph 83 % 0.00 in 0 W/m2
18:17 66.0 °F 60.7 °F 29.99 in SW 11.0 mph 21.0 mph 83 % 0.00 in 0 W/m2
18:22 65.8 °F 60.5 °F 29.99 in SW 9.0 mph 20.0 mph 83 % 0.00 in 0 W/m2
18:27 65.8 °F 60.5 °F 29.99 in SSW 8.0 mph 15.0 mph 83 % 0.00 in 0 W/m2
18:32 65.8 °F 60.9 °F 29.99 in SSW 10.0 mph 16.0 mph 84 % 0.00 in 0 W/m2
18:37 65.7 °F 60.7 °F 29.99 in SSW 9.0 mph 16.0 mph 84 % 0.00 in 0 W/m2
18:42 65.7 °F 60.7 °F 29.99 in SSW 8.0 mph 18.0 mph 84 % 0.00 in 0 W/m2
18:47 65.5 °F 60.5 °F 29.99 in SSW 8.0 mph 18.0 mph 84 % 0.00 in 0 W/m2
18:52 65.5 °F 60.5 °F 29.99 in SSW 6.0 mph 13.0 mph 84 % 0.00 in 0 W/m2
18:57 65.5 °F 60.5 °F 30.00 in SSW 7.0 mph 16.0 mph 84 % 0.00 in 0 W/m2
19:02 65.5 °F 60.5 °F 29.99 in SW 9.0 mph 16.0 mph 84 % 0.00 in 0 W/m2
19:07 65.5 °F 60.5 °F 29.99 in SW 10.0 mph 19.0 mph 84 % 0.00 in 0 W/m2
19:12 65.5 °F 60.5 °F 30.00 in SW 9.0 mph 22.0 mph 84 % 0.00 in 0 W/m2
19:17 65.5 °F 60.5 °F 30.00 in SW 8.0 mph 22.0 mph 84 % 0.00 in 0 W/m2
19:22 65.5 °F 60.5 °F 30.00 in SW 7.0 mph 15.0 mph 84 % 0.00 in 0 W/m2
19:27 65.5 °F 60.5 °F 30.00 in SW 7.0 mph 16.0 mph 84 % 0.00 in 0 W/m2
19:32 65.5 °F 60.8 °F 29.99 in SW 8.0 mph 18.0 mph 85 % 0.00 in 0 W/m2
19:37 65.3 °F 60.7 °F 30.00 in SW 9.0 mph 18.0 mph 85 % 0.00 in 0 W/m2
19:42 65.1 °F 60.5 °F 30.00 in SW 9.0 mph 19.0 mph 85 % 0.00 in 0 W/m2
19:47 64.9 °F 60.6 °F 30.00 in SW 8.0 mph 19.0 mph 86 % 0.00 in 0 W/m2
19:52 64.9 °F 60.6 °F 30.00 in SW 8.0 mph 18.0 mph 86 % 0.00 in 0 W/m2
19:57 64.9 °F 60.6 °F 30.00 in SW 10.0 mph 18.0 mph 86 % 0.00 in 0 W/m2
20:02 64.8 °F 60.5 °F 30.00 in WSW 9.0 mph 16.0 mph 86 % 0.00 in 0 W/m2
20:08 64.8 °F 60.5 °F 30.00 in WSW 8.0 mph 16.0 mph 86 % 0.00 in 0 W/m2
20:13 64.6 °F 60.3 °F 30.00 in SW 7.0 mph 13.0 mph 86 % 0.00 in 0 W/m2
20:18 64.6 °F 60.3 °F 30.00 in SW 8.0 mph 19.0 mph 86 % 0.00 in 0 W/m2
20:23 64.8 °F 60.5 °F 30.00 in SW 10.0 mph 24.0 mph 86 % 0.00 in 0 W/m2
20:28 64.9 °F 60.6 °F 30.00 in SW 13.0 mph 24.0 mph 86 % 0.00 in 0 W/m2
20:33 64.9 °F 60.6 °F 30.00 in SW 12.0 mph 24.0 mph 86 % 0.00 in 0 W/m2
20:38 64.9 °F 60.6 °F 30.00 in SW 11.0 mph 20.0 mph 86 % 0.00 in 0 W/m2
20:43 64.8 °F 60.8 °F 30.00 in SW 12.0 mph 22.0 mph 87 % 0.00 in 0 W/m2
20:48 64.6 °F 60.6 °F 30.01 in SW 11.0 mph 22.0 mph 87 % 0.00 in 0 W/m2
20:53 64.4 °F 60.8 °F 30.00 in WSW 10.0 mph 20.0 mph 88 % 0.00 in 0 W/m2
20:58 64.4 °F 60.4 °F 30.01 in WSW 10.0 mph 21.0 mph 87 % 0.00 in 0 W/m2
21:03 64.4 °F 60.4 °F 30.00 in SW 12.0 mph 22.0 mph 87 % 0.00 in 0 W/m2
21:08 64.6 °F 60.6 °F 30.01 in SW 12.0 mph 22.0 mph 87 % 0.00 in 0 W/m2
21:13 64.8 °F 60.5 °F 30.00 in SW 11.0 mph 20.0 mph 86 % 0.00 in 0 W/m2
21:18 64.8 °F 60.5 °F 30.01 in SW 13.0 mph 23.0 mph 86 % 0.00 in 0 W/m2
21:23 64.9 °F 60.6 °F 30.00 in SW 14.0 mph 24.0 mph 86 % 0.00 in 0 W/m2
21:28 64.9 °F 60.6 °F 30.00 in WSW 14.0 mph 25.0 mph 86 % 0.00 in 0 W/m2
21:33 64.9 °F 60.6 °F 30.00 in WSW 15.0 mph 25.0 mph 86 % 0.00 in 0 W/m2
21:38 64.9 °F 60.6 °F 30.00 in WSW 15.0 mph 25.0 mph 86 % 0.00 in 0 W/m2
21:43 64.9 °F 60.6 °F 30.00 in WSW 12.0 mph 22.0 mph 86 % 0.00 in 0 W/m2
21:48 64.9 °F 60.6 °F 30.00 in SW 12.0 mph 29.0 mph 86 % 0.00 in 0 W/m2
21:53 64.9 °F 60.6 °F 29.99 in SW 12.0 mph 29.0 mph 86 % 0.00 in 0 W/m2
21:58 64.9 °F 60.3 °F 30.00 in WSW 12.0 mph 23.0 mph 85 % 0.00 in 0 W/m2
22:03 64.9 °F 60.3 °F 29.99 in WSW 13.0 mph 25.0 mph 85 % 0.00 in 0 W/m2
22:08 65.1 °F 60.5 °F 30.00 in WSW 14.0 mph 26.0 mph 85 % 0.00 in 0 W/m2
22:13 65.1 °F 60.5 °F 30.00 in WSW 15.0 mph 29.0 mph 85 % 0.00 in 0 W/m2
22:18 65.1 °F 60.5 °F 30.00 in WSW 14.0 mph 29.0 mph 85 % 0.00 in 0 W/m2
22:23 65.1 °F 60.5 °F 29.99 in WSW 14.0 mph 26.0 mph 85 % 0.00 in 0 W/m2
22:28 65.1 °F 60.5 °F 30.00 in WSW 14.0 mph 27.0 mph 85 % 0.00 in 0 W/m2
22:33 64.9 °F 60.3 °F 30.00 in WSW 11.0 mph 27.0 mph 85 % 0.00 in 0 W/m2
22:38 64.9 °F 60.3 °F 30.00 in WSW 11.0 mph 22.0 mph 85 % 0.00 in 0 W/m2
22:43 64.9 °F 60.3 °F 30.01 in WSW 11.0 mph 22.0 mph 85 % 0.00 in 0 W/m2
22:48 64.9 °F 60.6 °F 30.00 in SW 11.0 mph 23.0 mph 86 % 0.00 in 0 W/m2
22:53 64.8 °F 60.5 °F 30.00 in SW 11.0 mph 24.0 mph 86 % 0.00 in 0 W/m2
22:58 64.8 °F 60.5 °F 30.00 in SW 11.0 mph 24.0 mph 86 % 0.00 in 0 W/m2
23:03 64.6 °F 60.6 °F 30.00 in SW 11.0 mph 21.0 mph 87 % 0.00 in 0 W/m2
23:08 64.6 °F 60.6 °F 30.00 in SW 11.0 mph 21.0 mph 87 % 0.00 in 0 W/m2
23:10 64.6 °F 60.6 °F 30.00 in SW 11.0 mph 19.0 mph 87 % 0.00 in 0 W/m2
23:15 64.6 °F 60.6 °F 30.00 in SW 10.0 mph 21.0 mph 87 % 0.00 in 0 W/m2
23:20 64.4 °F 60.4 °F 30.01 in SW 9.0 mph 21.0 mph 87 % 0.00 in 0 W/m2
23:25 64.4 °F 60.4 °F 30.01 in SW 9.0 mph 23.0 mph 87 % 0.00 in 0 W/m2
23:30 64.2 °F 60.3 °F 30.01 in SW 9.0 mph 23.0 mph 87 % 0.00 in 0 W/m2
23:35 64.2 °F 60.3 °F 30.01 in SW 10.0 mph 19.0 mph 87 % 0.00 in 0 W/m2
23:40 64.2 °F 60.3 °F 30.01 in WSW 10.0 mph 19.0 mph 87 % 0.00 in 0 W/m2
23:45 64.2 °F 60.3 °F 30.01 in SW 8.0 mph 15.0 mph 87 % 0.00 in 0 W/m2
23:50 64.2 °F 60.3 °F 30.01 in WSW 7.0 mph 16.0 mph 87 % 0.00 in 0 W/m2
23:55 64.4 °F 60.1 °F 30.02 in WSW 8.0 mph 20.0 mph 86 % 0.00 in 0 W/m2
Delerius-Weather
Compliments of Weather Underground - 2.25 mb

Data updates at regular intervals.